Finnhawk — OJNL — position and weather

sailwx.info

Track history (hours):
 
Tides and Currents Weather Stations Pressure Air Temp Water Temp Dewpoint Dewpoint Depression Visibility Wind Speed Wind Dir Waves Ship Positions

Finnhawk

Last reported at 2015-Jan-29 15:33 UTC. Time now 2015-Jan-31 16:14 UTC.
Position N 59°33' E 021°20'.

Length 163 m; draft 6.4 m.

Type: Ship. MMSI: 230007000.

Date/timePositionNaut miles runAvg speedWind from/ knotsBaromVisibWave heightAir tempDewpointWater temp
2015-Jan-29 15:33N 59°33' E 021°20'5712.9
2015-Jan-29 11:08N 59°39' E 023°12'914.8
2015-Jan-29 10:32N 59°41' E 023°29'2214.8
2015-Jan-29 09:04N 59°45' E 024°11'714.6
2015-Jan-29 08:33N 59°47' E 024°26'4614.9
2015-Jan-29 05:28N 59°59' E 025°55'1415.3
2015-Jan-29 04:33N 60°07' E 026°18'1514.8
2015-Jan-29 03:34N 60°19' E 026°35'1514.8
2015-Jan-29 02:34N 60°28' E 026°58'2 1.6
2015-Jan-29 01:34N 60°29' E 026°57'0 0.0
2015-Jan-29 00:33N 60°29' E 026°57'0 0.0
2015-Jan-28 23:33N 60°29' E 026°57'0 0.0
2015-Jan-28 22:33N 60°29' E 026°57'0 0.0
2015-Jan-28 21:33N 60°29' E 026°57'0 0.0
2015-Jan-28 20:33N 60°29' E 026°57'0 0.0
2015-Jan-28 19:33N 60°29' E 026°57'0 0.0
2015-Jan-28 18:33N 60°29' E 026°57'0 0.0
2015-Jan-28 17:33N 60°29' E 026°57'0 0.0
2015-Jan-28 16:33N 60°29' E 026°57'0 0.0
2015-Jan-28 15:33N 60°29' E 026°57'0 0.0
2015-Jan-28 14:33N 60°29' E 026°57'1 0.7
2015-Jan-28 13:33N 60°29' E 026°58'1514.9
2015-Jan-28 12:33N 60°19' E 026°35'2018.1
2015-Jan-28 11:29N 60°05' E 026°08'2914.8
2015-Jan-28 09:32N 60°04' E 025°10'9 9.1
2015-Jan-28 08:33N 60°13' E 025°11'0 0.0
2015-Jan-28 07:33N 60°13' E 025°11'0 0.0
2015-Jan-28 05:27N 60°13' E 025°11'0 0.0
2015-Jan-28 04:25N 60°13' E 025°11'5 5.8
2015-Jan-28 03:33N 60°08' E 025°12'2114.1
2015-Jan-28 02:06N 59°50' E 024°51'1017.5
2015-Jan-28 01:33N 59°45' E 024°35'1818.0
2015-Jan-28 00:33N 59°40' E 024°01'1818.3
2015-Jan-27 23:33N 59°34' E 023°27'22418.2
2015-Jan-27 11:14N 57°20' E 017°44'12418.3
2015-Jan-27 04:28N 55°40' E 015°32'1718.8
2015-Jan-27 03:33N 55°32' E 015°05'1918.8
2015-Jan-27 02:33N 55°21' E 014°38'1817.9
2015-Jan-27 01:31N 55°09' E 014°12'2119.5
2015-Jan-27 00:28N 55°12' E 013°37'1819.4
2015-Jan-26 23:33N 55°14' E 013°06'1717.0
2015-Jan-26 22:33N 55°20' E 012°38'1414.4
2015-Jan-26 21:34N 55°34' E 012°42'3014.9
2015-Jan-26 19:33N 56°04' E 012°37'7318.2
2015-Jan-26 15:34N 57°08' E 011°37'1918.5
2015-Jan-26 14:33N 57°26' E 011°24'1818.7
2015-Jan-26 13:34N 57°39' E 011°00'1817.8
2015-Jan-26 12:33N 57°45' E 010°29'17719.4
2015-Jan-26 03:26N 55°40' E 006°42'1719.4
2015-Jan-26 02:33N 55°25' E 006°27'7819.6
2015-Jan-25 22:33N 54°20' E 005°11'2019.5
2015-Jan-25 21:33N 54°03' E 004°57'2119.6
2015-Jan-25 20:27N 53°41' E 004°52'1920.4
2015-Jan-25 19:32N 53°24' E 004°41'2020.7
2015-Jan-25 18:33N 53°05' E 004°27'2020.1
2015-Jan-25 17:33N 52°47' E 004°14'1919.1
2015-Jan-25 16:33N 52°29' E 004°25'7 7.1
2015-Jan-25 15:33N 52°28' E 004°37'8 7.9
2015-Jan-25 14:33N 52°25' E 004°49'1 1.4
2015-Jan-25 13:33N 52°24' E 004°50'0 0.0
2015-Jan-25 12:33N 52°24' E 004°50'0 0.0
2015-Jan-25 11:33N 52°24' E 004°50'0 0.0
2015-Jan-25 10:33N 52°24' E 004°50'0 0.0
2015-Jan-25 09:33N 52°24' E 004°50'0 0.0
2015-Jan-25 08:33N 52°24' E 004°50'0 0.0
2015-Jan-25 07:33N 52°24' E 004°50'0 0.0
2015-Jan-25 06:33N 52°24' E 004°50'0 0.2
2015-Jan-25 05:34N 52°24' E 004°49'6 6.3
2015-Jan-25 04:33N 52°27' E 004°41'3 3.3
2015-Jan-25 03:33N 52°28' E 004°35'1313.3
2015-Jan-25 02:33N 52°29' E 004°13'1414.2
2015-Jan-25 01:34N 52°26' E 003°51'6514.4
2015-Jan-24 21:04N 51°50' E 002°24'714.1
2015-Jan-24 20:33N 51°45' E 002°14'1414.5
2015-Jan-24 19:33N 51°38' E 001°54'1414.2
2015-Jan-24 18:33N 51°30' E 001°35'1615.9
2015-Jan-24 17:34N 51°29' E 001°10'1919.4
2015-Jan-24 16:33N 51°30' E 000°39'1211.8
2015-Jan-24 15:34N 51°27' E 000°20'1 0.7
2015-Jan-24 14:33N 51°27' E 000°21'0 0.0
2015-Jan-24 13:34N 51°27' E 000°21'0 0.0
2015-Jan-24 12:34N 51°27' E 000°21'0 0.0
2015-Jan-24 11:34N 51°27' E 000°21'0 0.0
2015-Jan-24 10:34N 51°27' E 000°21'0 0.0
2015-Jan-24 09:34N 51°27' E 000°21'0 0.0
2015-Jan-24 08:34N 51°27' E 000°21'0 0.0
2015-Jan-24 07:34N 51°27' E 000°21'0 0.0
2015-Jan-24 06:34N 51°27' E 000°21'0 0.0
2015-Jan-24 05:34N 51°27' E 000°21'1 0.6
2015-Jan-24 04:34N 51°27' E 000°20'2 2.1
2015-Jan-24 03:34N 51°27' E 000°24'1010.3
2015-Jan-24 02:34N 51°30' E 000°40'1111.2
2015-Jan-24 01:33N 51°29' E 000°57'1413.8
2015-Jan-24 00:33N 51°29' E 001°19'8 7.8
2015-Jan-23 23:33N 51°26' E 001°31'7 6.8
2015-Jan-23 22:33N 51°32' E 001°37'8 8.0
2015-Jan-23 21:33N 51°38' E 001°45'9 8.7
2015-Jan-23 20:33N 51°47' E 001°44'9 8.8
2015-Jan-23 19:33N 51°56' E 001°45'9 8.8
2015-Jan-23 18:33N 52°04' E 001°48'9 8.9
2015-Jan-23 17:33N 52°13' E 001°51'9 9.3
2015-Jan-23 16:33N 52°22' E 001°55'9 9.5
2015-Jan-23 15:34N 52°31' E 001°59'9 9.2
2015-Jan-23 14:33N 52°40' E 002°02'4 4.1
2015-Jan-23 13:33N 52°44' E 002°00'4 4.0
2015-Jan-23 12:33N 52°47' E 001°56'1313.0
2015-Jan-23 11:33N 52°53' E 001°37'1313.1
2015-Jan-23 10:33N 52°59' E 001°18'1613.2
2015-Jan-23 09:20N 53°08' E 000°55'1414.0
2015-Jan-23 08:21N 53°18' E 000°39'1114.0
2015-Jan-23 07:34N 53°27' E 000°29'1312.8
2015-Jan-23 06:33N 53°33' E 000°10'1212.4
2015-Jan-23 05:34N 53°38' W 000°09'2 1.6
2015-Jan-23 04:34N 53°38' W 000°12'0 0.0
2015-Jan-23 03:29N 53°38' W 000°12'0 0.1
2015-Jan-23 02:32N 53°38' W 000°12'0 0.0
2015-Jan-23 01:33N 53°38' W 000°12'0 0.0
2015-Jan-23 00:33N 53°38' W 000°12'0 0.0
2015-Jan-22 23:33N 53°38' W 000°12'0 0.4
2015-Jan-22 22:33N 53°38' W 000°11'2 1.6
2015-Jan-22 21:34N 53°38' W 000°09'1211.6
2015-Jan-22 20:33N 53°33' E 000°09'1212.1
2015-Jan-22 19:33N 53°41' E 000°25'1716.4
2015-Jan-22 18:32N 53°49' E 000°50'40917.8
2015-Jan-21 19:32N 57°48' E 010°40'1818.5
2015-Jan-21 18:33N 57°38' E 011°08'1818.3
2015-Jan-21 17:34N 57°24' E 011°29'1817.5
2015-Jan-21 16:34N 57°07' E 011°41'5 5.4
2015-Jan-21 15:34N 57°02' E 011°45'1111.0
2015-Jan-21 14:33N 56°52' E 011°52'1817.6
2015-Jan-21 13:33N 56°35' E 011°58'1818.5
2015-Jan-21 12:33N 56°19' E 012°16'1817.7
2015-Jan-21 11:33N 56°05' E 012°36'1616.3
2015-Jan-21 10:33N 55°50' E 012°44'1514.7
2015-Jan-21 09:33N 55°35' E 012°42'1515.0
2015-Jan-21 08:33N 55°20' E 012°40'1716.9
2015-Jan-21 07:33N 55°15' E 013°08'2019.6
2015-Jan-21 06:33N 55°14' E 013°42'1919.2
2015-Jan-21 05:33N 55°13' E 014°16'1919.1
2015-Jan-21 04:33N 55°28' E 014°37'1918.6
2015-Jan-21 03:33N 55°38' E 015°05'35417.6
2015-Jan-20 07:23N 59°37' E 023°13'1618.7
2015-Jan-20 06:33N 59°42' E 023°42'1918.9
2015-Jan-20 05:33N 59°47' E 024°18'5818.8
2015-Jan-20 02:27N 60°04' E 026°09'1617.5
2015-Jan-20 01:33N 60°16' E 026°30'1414.2
2015-Jan-20 00:34N 60°24' E 026°53'5 5.4
2015-Jan-19 23:33N 60°29' E 026°57'0 0.0
2015-Jan-19 22:33N 60°29' E 026°57'0 0.0
2015-Jan-19 21:33N 60°29' E 026°57'0 0.0
2015-Jan-19 20:33N 60°29' E 026°57'0 0.0
2015-Jan-19 19:33N 60°29' E 026°57'0 0.0
2015-Jan-19 18:33N 60°29' E 026°57'0 0.0
2015-Jan-19 17:33N 60°29' E 026°57'0 0.0
2015-Jan-19 16:33N 60°29' E 026°57'0 0.0
2015-Jan-19 15:33N 60°29' E 026°57'  
Track history (hours):
 
Tides and Currents Weather Stations Pressure Air Temp Water Temp Dewpoint Dewpoint Depression Visibility Wind Speed Wind Dir Waves Ship Positions

Finnhawk

Last reported at 2015-Jan-29 15:33 UTC. Time now 2015-Jan-31 16:14 UTC.
Position N 59°33' E 021°20'.

Length 163 m; draft 6.4 m.

Type: Ship. MMSI: 230007000.

Date/timePositionNaut miles runAvg speedWind from/ knotsBaromVisibWave heightAir tempDewpointWater temp
2015-Jan-29 15:33N 59°33' E 021°20'5712.9
2015-Jan-29 11:08N 59°39' E 023°12'914.8
2015-Jan-29 10:32N 59°41' E 023°29'2214.8
2015-Jan-29 09:04N 59°45' E 024°11'714.6
2015-Jan-29 08:33N 59°47' E 024°26'4614.9
2015-Jan-29 05:28N 59°59' E 025°55'1415.3
2015-Jan-29 04:33N 60°07' E 026°18'1514.8
2015-Jan-29 03:34N 60°19' E 026°35'1514.8
2015-Jan-29 02:34N 60°28' E 026°58'2 1.6
2015-Jan-29 01:34N 60°29' E 026°57'0 0.0
2015-Jan-29 00:33N 60°29' E 026°57'0 0.0
2015-Jan-28 23:33N 60°29' E 026°57'0 0.0
2015-Jan-28 22:33N 60°29' E 026°57'0 0.0
2015-Jan-28 21:33N 60°29' E 026°57'0 0.0
2015-Jan-28 20:33N 60°29' E 026°57'0 0.0
2015-Jan-28 19:33N 60°29' E 026°57'0 0.0
2015-Jan-28 18:33N 60°29' E 026°57'0 0.0
2015-Jan-28 17:33N 60°29' E 026°57'0 0.0
2015-Jan-28 16:33N 60°29' E 026°57'0 0.0
2015-Jan-28 15:33N 60°29' E 026°57'0 0.0
2015-Jan-28 14:33N 60°29' E 026°57'1 0.7
2015-Jan-28 13:33N 60°29' E 026°58'1514.9
2015-Jan-28 12:33N 60°19' E 026°35'2018.1
2015-Jan-28 11:29N 60°05' E 026°08'2914.8
2015-Jan-28 09:32N 60°04' E 025°10'9 9.1
2015-Jan-28 08:33N 60°13' E 025°11'0 0.0
2015-Jan-28 07:33N 60°13' E 025°11'0 0.0
2015-Jan-28 05:27N 60°13' E 025°11'0 0.0
2015-Jan-28 04:25N 60°13' E 025°11'5 5.8
2015-Jan-28 03:33N 60°08' E 025°12'2114.1
2015-Jan-28 02:06N 59°50' E 024°51'1017.5
2015-Jan-28 01:33N 59°45' E 024°35'1818.0
2015-Jan-28 00:33N 59°40' E 024°01'1818.3
2015-Jan-27 23:33N 59°34' E 023°27'22418.2
2015-Jan-27 11:14N 57°20' E 017°44'12418.3
2015-Jan-27 04:28N 55°40' E 015°32'1718.8
2015-Jan-27 03:33N 55°32' E 015°05'1918.8
2015-Jan-27 02:33N 55°21' E 014°38'1817.9
2015-Jan-27 01:31N 55°09' E 014°12'2119.5
2015-Jan-27 00:28N 55°12' E 013°37'1819.4
2015-Jan-26 23:33N 55°14' E 013°06'1717.0
2015-Jan-26 22:33N 55°20' E 012°38'1414.4
2015-Jan-26 21:34N 55°34' E 012°42'3014.9
2015-Jan-26 19:33N 56°04' E 012°37'7318.2
2015-Jan-26 15:34N 57°08' E 011°37'1918.5
2015-Jan-26 14:33N 57°26' E 011°24'1818.7
2015-Jan-26 13:34N 57°39' E 011°00'1817.8
2015-Jan-26 12:33N 57°45' E 010°29'17719.4
2015-Jan-26 03:26N 55°40' E 006°42'1719.4
2015-Jan-26 02:33N 55°25' E 006°27'7819.6
2015-Jan-25 22:33N 54°20' E 005°11'2019.5
2015-Jan-25 21:33N 54°03' E 004°57'2119.6
2015-Jan-25 20:27N 53°41' E 004°52'1920.4
2015-Jan-25 19:32N 53°24' E 004°41'2020.7
2015-Jan-25 18:33N 53°05' E 004°27'2020.1
2015-Jan-25 17:33N 52°47' E 004°14'1919.1
2015-Jan-25 16:33N 52°29' E 004°25'7 7.1
2015-Jan-25 15:33N 52°28' E 004°37'8 7.9
2015-Jan-25 14:33N 52°25' E 004°49'1 1.4
2015-Jan-25 13:33N 52°24' E 004°50'0 0.0
2015-Jan-25 12:33N 52°24' E 004°50'0 0.0
2015-Jan-25 11:33N 52°24' E 004°50'0 0.0
2015-Jan-25 10:33N 52°24' E 004°50'0 0.0
2015-Jan-25 09:33N 52°24' E 004°50'0 0.0
2015-Jan-25 08:33N 52°24' E 004°50'0 0.0
2015-Jan-25 07:33N 52°24' E 004°50'0 0.0
2015-Jan-25 06:33N 52°24' E 004°50'0 0.2
2015-Jan-25 05:34N 52°24' E 004°49'6 6.3
2015-Jan-25 04:33N 52°27' E 004°41'3 3.3
2015-Jan-25 03:33N 52°28' E 004°35'1313.3
2015-Jan-25 02:33N 52°29' E 004°13'1414.2
2015-Jan-25 01:34N 52°26' E 003°51'6514.4
2015-Jan-24 21:04N 51°50' E 002°24'714.1
2015-Jan-24 20:33N 51°45' E 002°14'1414.5
2015-Jan-24 19:33N 51°38' E 001°54'1414.2
2015-Jan-24 18:33N 51°30' E 001°35'1615.9
2015-Jan-24 17:34N 51°29' E 001°10'1919.4
2015-Jan-24 16:33N 51°30' E 000°39'1211.8
2015-Jan-24 15:34N 51°27' E 000°20'1 0.7
2015-Jan-24 14:33N 51°27' E 000°21'0 0.0
2015-Jan-24 13:34N 51°27' E 000°21'0 0.0
2015-Jan-24 12:34N 51°27' E 000°21'0 0.0
2015-Jan-24 11:34N 51°27' E 000°21'0 0.0
2015-Jan-24 10:34N 51°27' E 000°21'0 0.0
2015-Jan-24 09:34N 51°27' E 000°21'0 0.0
2015-Jan-24 08:34N 51°27' E 000°21'0 0.0
2015-Jan-24 07:34N 51°27' E 000°21'0 0.0
2015-Jan-24 06:34N 51°27' E 000°21'0 0.0
2015-Jan-24 05:34N 51°27' E 000°21'1 0.6
2015-Jan-24 04:34N 51°27' E 000°20'2 2.1
2015-Jan-24 03:34N 51°27' E 000°24'1010.3
2015-Jan-24 02:34N 51°30' E 000°40'1111.2
2015-Jan-24 01:33N 51°29' E 000°57'1413.8
2015-Jan-24 00:33N 51°29' E 001°19'8 7.8
2015-Jan-23 23:33N 51°26' E 001°31'7 6.8
2015-Jan-23 22:33N 51°32' E 001°37'8 8.0
2015-Jan-23 21:33N 51°38' E 001°45'9 8.7
2015-Jan-23 20:33N 51°47' E 001°44'9 8.8
2015-Jan-23 19:33N 51°56' E 001°45'9 8.8
2015-Jan-23 18:33N 52°04' E 001°48'9 8.9
2015-Jan-23 17:33N 52°13' E 001°51'9 9.3
2015-Jan-23 16:33N 52°22' E 001°55'9 9.5
2015-Jan-23 15:34N 52°31' E 001°59'9 9.2
2015-Jan-23 14:33N 52°40' E 002°02'4 4.1
2015-Jan-23 13:33N 52°44' E 002°00'4 4.0
2015-Jan-23 12:33N 52°47' E 001°56'1313.0
2015-Jan-23 11:33N 52°53' E 001°37'1313.1
2015-Jan-23 10:33N 52°59' E 001°18'1613.2
2015-Jan-23 09:20N 53°08' E 000°55'1414.0
2015-Jan-23 08:21N 53°18' E 000°39'1114.0
2015-Jan-23 07:34N 53°27' E 000°29'1312.8
2015-Jan-23 06:33N 53°33' E 000°10'1212.4
2015-Jan-23 05:34N 53°38' W 000°09'2 1.6
2015-Jan-23 04:34N 53°38' W 000°12'0 0.0
2015-Jan-23 03:29N 53°38' W 000°12'0 0.1
2015-Jan-23 02:32N 53°38' W 000°12'0 0.0
2015-Jan-23 01:33N 53°38' W 000°12'0 0.0
2015-Jan-23 00:33N 53°38' W 000°12'0 0.0
2015-Jan-22 23:33N 53°38' W 000°12'0 0.4
2015-Jan-22 22:33N 53°38' W 000°11'2 1.6
2015-Jan-22 21:34N 53°38' W 000°09'1211.6
2015-Jan-22 20:33N 53°33' E 000°09'1212.1
2015-Jan-22 19:33N 53°41' E 000°25'1716.4
2015-Jan-22 18:32N 53°49' E 000°50'40917.8
2015-Jan-21 19:32N 57°48' E 010°40'1818.5
2015-Jan-21 18:33N 57°38' E 011°08'1818.3
2015-Jan-21 17:34N 57°24' E 011°29'1817.5
2015-Jan-21 16:34N 57°07' E 011°41'5 5.4
2015-Jan-21 15:34N 57°02' E 011°45'1111.0
2015-Jan-21 14:33N 56°52' E 011°52'1817.6
2015-Jan-21 13:33N 56°35' E 011°58'1818.5
2015-Jan-21 12:33N 56°19' E 012°16'1817.7
2015-Jan-21 11:33N 56°05' E 012°36'1616.3
2015-Jan-21 10:33N 55°50' E 012°44'1514.7
2015-Jan-21 09:33N 55°35' E 012°42'1515.0
2015-Jan-21 08:33N 55°20' E 012°40'1716.9
2015-Jan-21 07:33N 55°15' E 013°08'2019.6
2015-Jan-21 06:33N 55°14' E 013°42'1919.2
2015-Jan-21 05:33N 55°13' E 014°16'1919.1
2015-Jan-21 04:33N 55°28' E 014°37'1918.6
2015-Jan-21 03:33N 55°38' E 015°05'35417.6
2015-Jan-20 07:23N 59°37' E 023°13'1618.7
2015-Jan-20 06:33N 59°42' E 023°42'1918.9
2015-Jan-20 05:33N 59°47' E 024°18'5818.8
2015-Jan-20 02:27N 60°04' E 026°09'1617.5
2015-Jan-20 01:33N 60°16' E 026°30'1414.2
2015-Jan-20 00:34N 60°24' E 026°53'5 5.4
2015-Jan-19 23:33N 60°29' E 026°57'0 0.0
2015-Jan-19 22:33N 60°29' E 026°57'0 0.0
2015-Jan-19 21:33N 60°29' E 026°57'0 0.0
2015-Jan-19 20:33N 60°29' E 026°57'0 0.0
2015-Jan-19 19:33N 60°29' E 026°57'0 0.0
2015-Jan-19 18:33N 60°29' E 026°57'0 0.0
2015-Jan-19 17:33N 60°29' E 026°57'0 0.0
2015-Jan-19 16:33N 60°29' E 026°57'0 0.0
2015-Jan-19 15:33N 60°29' E 026°57'  

Dump ship's entire track history